createdAt,value
2022-10-17T00:00:49.095Z,72.88
2022-10-17T00:03:16.938Z,73.18
2022-10-17T00:05:47.022Z,73.85
2022-10-17T00:08:16.383Z,74.83
2022-10-17T00:10:44.379Z,74.48
2022-10-17T00:13:13.565Z,74.51
2022-10-17T00:15:45.146Z,74.46
2022-10-17T00:18:12.462Z,75.32
2022-10-17T00:20:39.778Z,74.79
2022-10-17T00:23:07.009Z,74.96
2022-10-17T00:25:34.494Z,75.12
2022-10-17T00:28:01.833Z,73.91
2022-10-17T00:30:29.236Z,74.69
2022-10-17T00:32:57.033Z,75.18
2022-10-17T00:35:24.383Z,75.83
2022-10-17T00:37:51.641Z,76.43
2022-10-17T00:40:19.010Z,76.55
2022-10-17T00:42:47.834Z,77.20
2022-10-17T00:45:20.535Z,77.40
2022-10-17T00:48:01.661Z,77.52
2022-10-17T00:50:30.730Z,77.92
2022-10-17T00:53:01.846Z,75.34
2022-10-17T00:55:33.601Z,74.20
2022-10-17T00:58:03.627Z,76.24
2022-10-17T01:00:31.495Z,76.19
2022-10-17T01:02:58.815Z,77.40
2022-10-17T01:05:26.778Z,77.23
2022-10-17T01:07:56.088Z,77.63
2022-10-17T01:10:30.676Z,78.17
2022-10-17T01:13:25.240Z,77.92
2022-10-17T01:16:32.611Z,78.90
2022-10-17T01:19:27.706Z,80.32
2022-10-17T01:22:24.220Z,82.58
2022-10-17T01:25:00.497Z,83.70
2022-10-17T01:27:44.072Z,84.08
2022-10-17T01:30:32.209Z,85.60
2022-10-17T01:33:09.667Z,85.32
2022-10-17T01:35:43.906Z,85.27
2022-10-17T01:38:19.313Z,83.93
2022-10-17T01:41:17.227Z,84.24
2022-10-17T01:43:59.862Z,81.69
2022-10-17T01:46:37.720Z,82.12
2022-10-17T01:49:08.839Z,82.57
2022-10-17T01:51:45.456Z,81.40
2022-10-17T01:54:21.845Z,80.43
2022-10-17T01:56:53.150Z,79.03
2022-10-17T01:59:25.288Z,78.60
2022-10-17T02:01:55.857Z,78.28
2022-10-17T02:04:24.218Z,77.71
2022-10-17T02:06:51.559Z,77.50
2022-10-17T02:09:24.501Z,75.42
2022-10-17T02:12:18.315Z,74.61
2022-10-17T02:15:05.498Z,73.86
2022-10-17T02:17:43.263Z,72.80
2022-10-17T02:20:25.516Z,71.24
2022-10-17T02:23:07.478Z,70.91
2022-10-17T02:25:49.202Z,68.64
2022-10-17T02:28:32.530Z,67.15
2022-10-17T02:31:23.127Z,67.39
2022-10-17T02:33:57.089Z,67.77
2022-10-17T02:36:29.450Z,68.60
2022-10-17T02:38:59.175Z,67.75
2022-10-17T02:43:57.626Z,68.09
2022-10-17T02:46:29.043Z,67.97
2022-10-17T02:49:04.576Z,68.32
2022-10-17T02:52:02.058Z,69.27
2022-10-17T02:54:39.478Z,70.11
2022-10-17T02:57:11.055Z,73.00
2022-10-17T02:59:41.778Z,74.38
2022-10-17T03:02:09.226Z,77.26
2022-10-17T03:04:36.653Z,77.54
2022-10-17T03:07:04.046Z,78.82
2022-10-17T03:09:31.413Z,79.27
2022-10-17T03:11:58.758Z,78.60
2022-10-17T03:14:26.120Z,79.74
2022-10-17T03:16:53.483Z,81.86
2022-10-17T03:19:20.925Z,82.32
2022-10-17T03:21:48.649Z,83.24
2022-10-17T03:24:16.057Z,83.72
2022-10-17T03:26:43.470Z,84.25
2022-10-17T03:29:11.097Z,85.27
2022-10-17T03:31:38.962Z,86.12
2022-10-17T03:34:07.526Z,85.79
2022-10-17T03:36:34.887Z,85.37
2022-10-17T03:39:02.450Z,85.78
2022-10-17T03:41:29.845Z,85.58
2022-10-17T03:43:57.149Z,85.94
2022-10-17T03:46:25.277Z,85.65
2022-10-17T03:48:54.275Z,85.62
2022-10-17T03:51:21.589Z,86.10
2022-10-17T03:53:53.992Z,84.44
2022-10-17T03:56:24.286Z,83.10
2022-10-17T03:58:58.002Z,83.64
2022-10-17T04:01:25.673Z,84.02
2022-10-17T04:03:55.239Z,84.13
2022-10-17T04:06:23.356Z,84.35
2022-10-17T04:08:51.076Z,85.01
2022-10-17T04:11:25.306Z,85.48
2022-10-17T04:13:57.199Z,85.67
2022-10-17T04:16:26.398Z,86.60
2022-10-17T04:19:00.331Z,86.52
2022-10-17T04:21:31.938Z,87.29
2022-10-17T04:24:04.583Z,87.33
2022-10-17T04:26:55.060Z,87.69
2022-10-17T04:29:26.134Z,88.41
2022-10-17T04:31:59.030Z,88.85
2022-10-17T04:34:35.010Z,89.38
2022-10-17T04:37:02.715Z,88.97
2022-10-17T04:39:30.250Z,89.19
2022-10-17T04:41:58.280Z,89.81
2022-10-17T04:44:25.726Z,89.35
2022-10-17T04:46:53.221Z,89.22
2022-10-17T04:49:20.647Z,88.83
2022-10-17T04:51:52.459Z,88.18
2022-10-17T04:54:26.463Z,87.32
2022-10-17T04:57:03.602Z,87.78
2022-10-17T04:59:31.568Z,88.90
2022-10-17T05:02:15.533Z,89.11
2022-10-17T05:04:46.625Z,89.50
2022-10-17T05:07:15.374Z,88.68
2022-10-17T05:09:59.004Z,88.08
2022-10-17T05:12:26.782Z,87.51
2022-10-17T05:14:54.567Z,87.85
2022-10-17T05:17:24.385Z,87.16
2022-10-17T05:19:51.688Z,87.39
2022-10-17T05:22:19.256Z,87.02
2022-10-17T05:24:46.747Z,87.18
2022-10-17T05:27:14.173Z,86.61
2022-10-17T05:29:41.609Z,86.36
2022-10-17T05:32:17.033Z,85.88
2022-10-17T05:34:44.768Z,85.47
2022-10-17T05:37:12.224Z,84.00
2022-10-17T05:39:40.516Z,77.27
2022-10-17T05:42:09.894Z,68.78
2022-10-17T05:44:37.427Z,68.13
2022-10-17T05:47:05.880Z,70.88
2022-10-17T05:49:44.959Z,71.84
2022-10-17T05:52:18.241Z,72.47
2022-10-17T05:54:56.951Z,72.83
2022-10-17T05:57:27.601Z,74.03
2022-10-17T05:59:55.306Z,75.57
2022-10-17T06:02:23.080Z,75.73
2022-10-17T06:04:50.712Z,77.09
2022-10-17T06:07:20.759Z,75.84
2022-10-17T06:09:49.907Z,76.03
2022-10-17T06:12:18.671Z,76.95
2022-10-17T06:14:46.796Z,76.81
2022-10-17T06:17:16.366Z,76.61
2022-10-17T06:19:47.891Z,75.44
2022-10-17T06:22:16.281Z,75.25
2022-10-17T06:24:44.167Z,75.28
2022-10-17T06:27:12.678Z,74.80
2022-10-17T06:29:41.433Z,73.17
2022-10-17T06:32:12.561Z,72.80
2022-10-17T06:34:43.484Z,71.60
2022-10-17T06:37:11.178Z,70.65
2022-10-17T06:39:40.347Z,70.03
2022-10-17T06:42:12.824Z,69.97
2022-10-17T06:44:49.336Z,69.31
2022-10-17T06:47:22.868Z,69.77
2022-10-17T06:49:52.779Z,70.67
2022-10-17T06:52:40.298Z,71.04
2022-10-17T06:55:26.109Z,69.89
2022-10-17T06:58:11.875Z,68.96
2022-10-17T07:01:17.697Z,67.94
2022-10-17T07:03:50.397Z,66.36
2022-10-17T07:06:18.343Z,65.61
2022-10-17T07:08:46.881Z,64.69
2022-10-17T07:11:19.472Z,63.44
2022-10-17T07:13:49.869Z,63.51
2022-10-17T07:16:17.771Z,63.13
2022-10-17T07:18:52.591Z,62.55
2022-10-17T07:21:20.438Z,61.97
2022-10-17T07:23:47.957Z,61.22
2022-10-17T07:26:17.817Z,61.28
2022-10-17T07:28:47.108Z,60.22
2022-10-17T07:31:28.435Z,58.81
2022-10-17T07:33:55.915Z,58.28
2022-10-17T07:36:30.978Z,59.41
2022-10-17T07:39:00.295Z,57.75
2022-10-17T07:41:28.203Z,57.84
2022-10-17T07:43:56.637Z,57.97
2022-10-17T07:46:30.057Z,58.76
2022-10-17T07:48:57.587Z,57.90
2022-10-17T07:51:25.106Z,57.87
2022-10-17T07:53:52.553Z,58.84
2022-10-17T07:56:21.748Z,58.43
2022-10-17T07:58:49.089Z,58.61
2022-10-17T08:01:16.552Z,58.69
2022-10-17T08:03:48.958Z,57.76
2022-10-17T08:06:16.378Z,56.49
2022-10-17T08:08:44.113Z,55.69
2022-10-17T08:11:14.413Z,54.82
2022-10-17T08:13:42.297Z,55.18
2022-10-17T08:16:12.339Z,53.88
2022-10-17T08:18:41.501Z,54.05
2022-10-17T08:21:09.834Z,54.13
2022-10-17T08:23:37.961Z,54.03
2022-10-17T08:26:10.930Z,54.90
2022-10-17T08:28:42.712Z,52.67
2022-10-17T08:31:16.043Z,52.33
2022-10-17T08:33:43.428Z,51.85
2022-10-17T08:36:14.130Z,51.01
2022-10-17T08:38:43.892Z,51.73
2022-10-17T08:41:22.822Z,49.70
2022-10-17T08:44:27.507Z,48.54
2022-10-17T08:46:59.303Z,48.39
2022-10-17T08:49:42.392Z,48.40
2022-10-17T08:52:30.546Z,47.25
2022-10-17T08:54:58.188Z,47.33
2022-10-17T08:57:26.540Z,47.37
2022-10-17T08:59:55.441Z,45.79
2022-10-17T09:02:31.772Z,44.98
2022-10-17T09:05:36.152Z,41.28
2022-10-17T09:08:32.286Z,40.02
2022-10-17T09:11:21.387Z,41.72
2022-10-17T09:13:51.791Z,42.27
2022-10-17T09:16:55.210Z,44.21
2022-10-17T09:20:10.207Z,42.10
2022-10-17T09:23:06.092Z,41.00
2022-10-17T09:25:42.889Z,40.34
2022-10-17T09:28:14.360Z,40.84
2022-10-17T09:30:52.682Z,39.33
2022-10-17T09:33:35.657Z,38.36
2022-10-17T09:36:37.486Z,36.89
2022-10-17T09:39:18.009Z,37.26
2022-10-17T09:41:49.114Z,38.39
2022-10-17T09:44:20.895Z,37.85
2022-10-17T09:47:17.157Z,36.70
2022-10-17T09:49:46.818Z,36.69
2022-10-17T09:52:34.827Z,36.80
2022-10-17T09:55:20.581Z,37.42
2022-10-17T09:58:01.050Z,38.20
2022-10-17T10:00:38.507Z,38.15
2022-10-17T10:03:13.363Z,38.65
2022-10-17T10:05:44.404Z,37.80
2022-10-17T10:08:18.226Z,38.37
2022-10-17T10:10:46.105Z,37.43
2022-10-17T10:13:13.302Z,38.08
2022-10-17T10:15:42.554Z,37.99
2022-10-17T10:18:25.314Z,38.00
2022-10-17T10:21:09.520Z,37.52
2022-10-17T10:23:42.384Z,37.85
2022-10-17T10:26:21.829Z,37.40
2022-10-17T10:29:06.909Z,37.61
2022-10-17T10:31:37.904Z,36.41
2022-10-17T10:34:20.717Z,36.19
2022-10-17T10:37:00.036Z,35.30
2022-10-17T10:39:34.066Z,35.97
2022-10-17T10:42:03.596Z,36.84
2022-10-17T10:44:32.569Z,37.08
2022-10-17T10:47:17.229Z,35.19
2022-10-17T10:49:45.595Z,34.74
2022-10-17T10:52:22.807Z,35.26
2022-10-17T10:55:05.456Z,35.09
2022-10-17T10:57:37.263Z,35.47
2022-10-17T11:00:15.852Z,35.36
2022-10-17T11:02:54.141Z,34.54
2022-10-17T11:05:40.881Z,34.72
2022-10-17T11:08:14.806Z,34.18
2022-10-17T11:10:52.261Z,33.24
2022-10-17T11:13:43.906Z,33.45
2022-10-17T11:16:17.377Z,33.83
2022-10-17T12:00:32.488Z,23.59
2022-10-17T12:03:07.524Z,26.69
2022-10-17T12:05:41.128Z,28.63
2022-10-17T12:08:33.744Z,29.71
2022-10-17T12:11:38.298Z,30.84
2022-10-17T12:14:45.391Z,32.93
2022-10-17T12:17:35.239Z,33.50
2022-10-17T12:20:19.059Z,32.86
2022-10-17T12:22:58.167Z,33.99
2022-10-17T12:25:32.983Z,33.90
2022-10-17T12:28:14.615Z,33.10
2022-10-17T12:31:13.871Z,32.46
2022-10-17T12:33:55.650Z,33.31
2022-10-17T12:36:23.093Z,33.90
2022-10-17T12:38:53.223Z,34.40
2022-10-17T12:41:39.208Z,35.06
2022-10-17T12:44:14.704Z,34.61
2022-10-17T12:46:58.230Z,34.44
2022-10-17T12:49:43.221Z,33.64
2022-10-17T12:52:27.650Z,33.28
2022-10-17T12:55:10.867Z,32.82
2022-10-17T12:57:51.071Z,31.50
2022-10-17T13:00:59.619Z,32.41
2022-10-17T13:03:35.411Z,32.12
2022-10-17T13:06:07.275Z,32.24
2022-10-17T13:08:39.414Z,32.48
2022-10-17T13:11:09.223Z,32.06
2022-10-17T13:13:39.469Z,32.46
2022-10-17T13:16:07.144Z,30.84
2022-10-17T13:18:34.996Z,32.05
2022-10-17T13:21:06.861Z,32.52
2022-10-17T13:23:37.205Z,33.46
2022-10-17T13:26:20.359Z,33.82
2022-10-17T13:29:06.554Z,34.50
2022-10-17T13:31:39.039Z,33.41
2022-10-17T13:34:16.953Z,33.69
2022-10-17T13:36:48.874Z,33.76
2022-10-17T13:39:23.217Z,33.69
2022-10-17T13:41:57.143Z,33.47
2022-10-17T13:44:29.403Z,32.26
2022-10-17T13:46:56.738Z,33.72
2022-10-17T13:49:34.194Z,35.77
2022-10-17T13:52:04.407Z,36.44
2022-10-17T13:54:40.472Z,37.61
2022-10-17T13:57:29.505Z,37.71
2022-10-17T14:00:10.053Z,37.64
2022-10-17T14:02:42.364Z,37.96
2022-10-17T14:05:17.887Z,38.65
2022-10-17T14:08:13.042Z,38.97
2022-10-17T14:10:44.607Z,39.74
2022-10-17T14:13:27.447Z,40.25
2022-10-17T14:15:59.305Z,40.61
2022-10-17T14:18:36.805Z,40.95
2022-10-17T14:24:14.412Z,40.00
2022-10-17T14:26:55.700Z,40.88
2022-10-17T14:29:25.370Z,40.69
2022-10-17T14:32:18.080Z,40.41
2022-10-17T14:34:46.850Z,40.61
2022-10-17T14:37:35.212Z,40.49
2022-10-17T14:40:06.031Z,40.72
2022-10-17T14:42:40.750Z,40.60
2022-10-17T14:45:13.425Z,40.79
2022-10-17T14:47:43.909Z,40.98
2022-10-17T14:50:11.687Z,41.44
2022-10-17T14:52:40.050Z,41.71
2022-10-17T14:55:28.255Z,41.67
2022-10-17T14:57:55.617Z,42.00
2022-10-17T15:00:24.616Z,42.07
2022-10-17T15:02:54.990Z,42.57
2022-10-17T15:05:23.720Z,43.16
2022-10-17T15:07:51.597Z,43.06
2022-10-17T15:10:35.988Z,43.99
2022-10-17T15:15:52.612Z,45.61
2022-10-17T15:18:20.027Z,45.12
2022-10-17T15:20:50.089Z,44.81
2022-10-17T15:23:23.538Z,44.85
2022-10-17T15:25:50.986Z,44.79
2022-10-17T15:28:18.378Z,45.27
2022-10-17T15:30:45.955Z,45.75
2022-10-17T15:33:13.410Z,46.34
2022-10-17T15:35:43.480Z,47.18
2022-10-17T15:38:18.465Z,48.33
2022-10-17T15:40:49.127Z,51.30
2022-10-17T15:43:19.855Z,53.32
2022-10-17T15:45:47.923Z,55.75
2022-10-17T15:48:31.626Z,57.35
2022-10-17T15:50:59.082Z,58.02
2022-10-17T15:53:26.704Z,58.48
2022-10-17T15:55:54.190Z,59.46
2022-10-17T15:58:21.596Z,58.93
2022-10-17T16:00:49.267Z,58.96
2022-10-17T16:03:16.771Z,58.73
2022-10-17T16:05:44.171Z,58.90
2022-10-17T16:08:11.560Z,59.78
2022-10-17T16:10:40.843Z,60.06
2022-10-17T16:13:20.755Z,60.98
2022-10-17T16:15:48.237Z,62.14
2022-10-17T16:18:15.649Z,62.23
2022-10-17T16:20:43.125Z,62.63
2022-10-17T16:23:12.852Z,63.41
2022-10-17T16:25:41.043Z,64.17
2022-10-17T16:28:08.810Z,64.64
2022-10-17T16:30:42.812Z,65.36
2022-10-17T16:33:10.704Z,65.57
2022-10-17T16:35:38.219Z,65.91
2022-10-17T16:38:08.010Z,66.67
2022-10-17T16:40:38.322Z,68.03
2022-10-17T16:43:05.967Z,69.18
2022-10-17T16:45:33.482Z,70.36
2022-10-17T16:48:01.536Z,70.79
2022-10-17T16:50:31.427Z,71.36
2022-10-17T16:52:58.868Z,71.87
2022-10-17T16:55:26.229Z,72.67
2022-10-17T16:57:53.909Z,73.56
2022-10-17T17:00:21.479Z,73.12
2022-10-17T17:02:49.330Z,72.89
2022-10-17T17:05:16.751Z,73.74
2022-10-17T17:07:44.273Z,75.43
2022-10-17T17:10:11.587Z,76.70
2022-10-17T17:12:39.053Z,77.28
2022-10-17T17:15:06.583Z,77.95
2022-10-17T17:17:49.701Z,78.97
2022-10-17T17:20:19.785Z,80.17
2022-10-17T17:22:47.157Z,81.36
2022-10-17T17:25:14.731Z,83.21
2022-10-17T17:27:42.184Z,83.62
2022-10-17T17:30:10.048Z,84.17
2022-10-17T17:32:37.503Z,83.41
2022-10-17T17:35:05.259Z,83.25
2022-10-17T17:37:32.790Z,83.22
2022-10-17T17:40:00.490Z,83.92
2022-10-17T17:42:27.948Z,85.12
2022-10-17T17:44:55.398Z,85.87
2022-10-17T17:47:22.732Z,86.16
2022-10-17T17:49:50.179Z,86.10
2022-10-17T17:52:17.547Z,85.78
2022-10-17T17:54:46.158Z,85.23
2022-10-17T17:57:13.676Z,86.11
2022-10-17T17:59:41.722Z,85.96
2022-10-17T18:02:11.319Z,84.45
2022-10-17T18:04:38.831Z,82.92
2022-10-17T18:07:06.241Z,82.01
2022-10-17T18:09:33.804Z,80.29
2022-10-17T18:12:01.575Z,78.52
2022-10-17T18:14:28.980Z,77.31
2022-10-17T18:16:56.635Z,76.12
2022-10-17T18:19:24.158Z,75.01
2022-10-17T18:21:51.654Z,75.74
2022-10-17T18:24:19.427Z,75.97
2022-10-17T18:26:46.857Z,74.23
2022-10-17T18:29:14.365Z,73.04
2022-10-17T18:31:41.829Z,71.96
2022-10-17T18:34:10.026Z,71.97
2022-10-17T18:36:37.987Z,71.86
2022-10-17T18:39:05.864Z,70.50
2022-10-17T18:41:34.131Z,70.21
2022-10-17T18:44:03.213Z,71.20
2022-10-17T18:46:35.911Z,71.83
2022-10-17T18:49:03.744Z,71.92
2022-10-17T18:51:31.284Z,71.95
2022-10-17T18:53:59.401Z,71.80
2022-10-17T18:56:30.275Z,70.30
2022-10-17T18:58:58.139Z,69.59
2022-10-17T19:01:27.619Z,69.19
2022-10-17T19:03:57.609Z,69.29
2022-10-17T19:06:32.110Z,70.07
2022-10-17T19:09:01.521Z,71.15
2022-10-17T19:11:31.074Z,71.46
2022-10-17T19:14:01.099Z,71.90
2022-10-17T19:16:33.614Z,72.03
2022-10-17T19:19:07.164Z,71.92
2022-10-17T19:21:35.146Z,72.10
2022-10-17T19:24:05.527Z,71.37
2022-10-17T19:26:35.572Z,71.44
2022-10-17T19:29:04.385Z,72.37
2022-10-17T19:31:33.030Z,72.24
2022-10-17T19:34:01.145Z,71.91
2022-10-17T19:36:33.315Z,72.21
2022-10-17T19:39:07.561Z,72.55
2022-10-17T19:41:36.681Z,72.61
2022-10-17T19:44:04.232Z,72.91
2022-10-17T19:46:32.430Z,72.44
2022-10-17T19:49:00.437Z,73.01
2022-10-17T19:51:29.357Z,73.47
2022-10-17T19:54:00.621Z,74.28
2022-10-17T19:56:29.993Z,74.48
2022-10-17T19:58:58.792Z,74.86
2022-10-17T20:01:34.083Z,75.12
2022-10-17T20:04:02.076Z,76.13
2022-10-17T20:06:29.532Z,75.82
2022-10-17T20:08:57.185Z,76.41
2022-10-17T20:11:27.727Z,76.09
2022-10-17T20:13:55.987Z,76.07
2022-10-17T20:18:56.495Z,77.08
2022-10-17T20:21:27.618Z,76.49
2022-10-17T20:23:56.581Z,76.77
2022-10-17T20:26:37.453Z,75.83
2022-10-17T20:29:09.051Z,76.32
2022-10-17T20:31:36.995Z,76.44
2022-10-17T20:34:04.466Z,76.95
2022-10-17T20:36:32.646Z,77.55
2022-10-17T20:39:00.737Z,78.04
2022-10-17T20:41:28.028Z,78.21
2022-10-17T20:43:56.207Z,77.63
2022-10-17T20:46:36.427Z,77.79
2022-10-17T20:49:09.064Z,77.69
2022-10-17T20:51:36.796Z,77.29
2022-10-17T20:54:04.963Z,77.55
2022-10-17T20:56:33.758Z,77.70
2022-10-17T20:59:04.265Z,77.78
2022-10-17T21:01:33.530Z,77.42
2022-10-17T21:04:21.353Z,77.95
2022-10-17T21:06:49.002Z,76.92
2022-10-17T21:09:16.451Z,76.81
2022-10-17T21:11:44.408Z,77.30
2022-10-17T21:14:12.631Z,77.67
2022-10-17T21:16:41.533Z,78.17
2022-10-17T21:19:12.346Z,78.23
2022-10-17T21:21:44.845Z,78.66
2022-10-17T21:24:17.799Z,78.49
2022-10-17T21:26:46.798Z,79.13
2022-10-17T21:29:14.825Z,79.32
2022-10-17T21:31:44.991Z,79.33
2022-10-17T21:34:26.712Z,79.30
2022-10-17T21:36:54.052Z,79.08
2022-10-17T21:39:22.245Z,79.06
2022-10-17T21:41:49.564Z,80.06
2022-10-17T21:44:19.285Z,83.22
2022-10-17T21:46:47.775Z,83.09
2022-10-17T21:49:17.511Z,82.32
2022-10-17T21:51:45.651Z,82.35
2022-10-17T21:54:13.010Z,81.62
2022-10-17T21:56:40.986Z,79.56
2022-10-17T21:59:08.928Z,79.48
2022-10-17T22:01:39.539Z,79.30
2022-10-17T22:04:09.116Z,78.51
2022-10-17T22:06:40.686Z,78.49
2022-10-17T22:09:20.971Z,77.48
2022-10-17T22:11:50.931Z,78.23
2022-10-17T22:14:20.122Z,79.84
2022-10-17T22:16:48.346Z,81.36
2022-10-17T22:19:18.905Z,81.40
2022-10-17T22:21:46.727Z,80.78
2022-10-17T22:24:15.803Z,82.05
2022-10-17T22:26:44.707Z,82.07
2022-10-17T22:29:12.960Z,79.78
2022-10-17T22:31:42.929Z,79.66
2022-10-17T22:34:12.740Z,77.21
2022-10-17T22:36:40.956Z,76.77
2022-10-17T22:39:08.942Z,75.22
2022-10-17T22:41:36.296Z,73.24
2022-10-17T22:44:03.929Z,76.16
2022-10-17T22:46:31.199Z,79.32
2022-10-17T22:48:58.663Z,79.55
2022-10-17T22:51:26.023Z,78.61
2022-10-17T22:53:53.282Z,78.64
2022-10-17T22:56:21.744Z,78.90
2022-10-17T22:58:48.970Z,81.49
2022-10-17T23:01:19.549Z,82.52
2022-10-17T23:03:47.713Z,83.28
2022-10-17T23:06:15.441Z,82.51
2022-10-17T23:08:43.978Z,81.59
2022-10-17T23:11:11.886Z,83.11
2022-10-17T23:13:41.108Z,83.38
2022-10-17T23:16:09.518Z,82.73
2022-10-17T23:18:38.084Z,82.99
2022-10-17T23:21:06.084Z,85.26
2022-10-17T23:23:33.622Z,85.54
2022-10-17T23:26:10.552Z,85.39
2022-10-17T23:28:38.877Z,86.00
2022-10-17T23:31:18.656Z,86.51
2022-10-17T23:33:49.101Z,87.04
2022-10-17T23:36:19.728Z,87.13
2022-10-17T23:38:48.045Z,87.42
2022-10-17T23:41:16.148Z,87.23
2022-10-17T23:43:44.380Z,86.57
2022-10-17T23:46:14.202Z,86.21
2022-10-17T23:48:41.925Z,85.91
2022-10-17T23:51:10.695Z,86.19
2022-10-17T23:53:39.305Z,86.05
2022-10-17T23:56:08.077Z,85.99
2022-10-17T23:58:35.955Z,85.90
